Puerto Banus, Marbella

>

This is an optional block (switch it off / on) in the settings - file ($SITE['banners'] = false;)

You can display ads, any other important text or photo’s using text / html or PHP code.

You can place one or more at the top and or bottom and it can all be different for content / size .



Meteosat more information blitzortung!


Radar lluvias  rain snow radar


Visita nuestra red de sitios de meteo:

Documentation for the template used

MeteoibericaRed estaciones Meteorologicas

MeteoclimaticRed estaciones Meteorologicas



Sin Advertencias climatologicas .En este momento tenemos Nivel Verde.    No hay Alarmas

Pagina Historial Weather Underground texto

Diario Resumen Diciembre 5, 2017 Unidades:  Métrico    impérial   Tanto
« Anterior Dia
Siguiente Dia »
Diario Semana Mensual Anual Personalizada
  Maxima: Minima: Media:
Temperatura: 14.9 °C 11.2 °C 13.6 °C
Punto de rocío: 9.9 °C 6.7 °C 8.5 °C
Humedad: 75 % 67 % 72 %
Velocidad del Viento: 31.5 km/h 5.6 km/h 21.2 km/h
Ráfagas de viento: 31.5 km/h - -
Viento:- - ENE
Pression baro: 1034.8 hPa 1032.4 hPa -
Précipitaciones: 0.0 mm    
Historical Graphs
 
 
Datos de tabla para Diciembre 5, 2017
Tiempo Temperatura Punto de rocío Pression baro Viento Velocidad del Viento Ráfagas de viento Humedad Las precipitaciones Rate ( Hora )
00:04 13.6 °C 8.4 °C 1033.4 hPa ENE 18.5 km/h 18.5 km/h 71 % 0.0 mm
00:09 13.7 °C 8.7 °C 1033.4 hPa ENE 18.5 km/h 18.5 km/h 72 % 0.0 mm
00:14 13.7 °C 8.7 °C 1033.4 hPa NE 16.7 km/h 16.7 km/h 72 % 0.0 mm
00:19 13.7 °C 8.7 °C 1033.4 hPa ENE 18.5 km/h 18.5 km/h 72 % 0.0 mm
00:24 13.8 °C 8.6 °C 1033.4 hPa ENE 22.2 km/h 22.2 km/h 71 % 0.0 mm
00:29 13.8 °C 8.8 °C 1033.4 hPa NE 18.5 km/h 18.5 km/h 72 % 0.0 mm
00:34 13.7 °C 8.5 °C 1033.4 hPa ENE 20.4 km/h 20.4 km/h 71 % 0.0 mm
00:39 13.7 °C 8.9 °C 1033.4 hPa ENE 22.2 km/h 22.2 km/h 73 % 0.0 mm
00:44 13.7 °C 8.8 °C 1033.4 hPa ENE 20.4 km/h 20.4 km/h 72 % 0.0 mm
00:49 13.7 °C 8.7 °C 1033.4 hPa ENE 20.4 km/h 20.4 km/h 72 % 0.0 mm
00:54 13.7 °C 8.9 °C 1033.4 hPa ENE 18.5 km/h 18.5 km/h 73 % 0.0 mm
00:59 13.7 °C 8.9 °C 1033.1 hPa ENE 19.3 km/h 19.3 km/h 73 % 0.0 mm
01:04 13.6 °C 8.8 °C 1033.1 hPa ENE 19.3 km/h 19.3 km/h 73 % 0.0 mm
01:09 13.6 °C 9.1 °C 1033.1 hPa ENE 22.5 km/h 22.5 km/h 74 % 0.0 mm
01:14 13.6 °C 9.0 °C 1033.1 hPa NE 18.5 km/h 18.5 km/h 74 % 0.0 mm
01:19 13.6 °C 9.0 °C 1033.1 hPa ENE 19.3 km/h 19.3 km/h 74 % 0.0 mm
01:24 13.6 °C 9.2 °C 1033.1 hPa ENE 22.5 km/h 22.5 km/h 75 % 0.0 mm
01:29 13.6 °C 9.0 °C 1033.1 hPa NE 20.4 km/h 20.4 km/h 74 % 0.0 mm
01:34 13.6 °C 9.0 °C 1033.1 hPa ENE 22.2 km/h 22.2 km/h 74 % 0.0 mm
01:39 13.6 °C 9.0 °C 1033.1 hPa ENE 24.1 km/h 24.1 km/h 74 % 0.0 mm
01:44 13.6 °C 9.1 °C 1033.1 hPa ENE 20.4 km/h 20.4 km/h 74 % 0.0 mm
01:49 13.6 °C 9.0 °C 1033.1 hPa ENE 19.3 km/h 19.3 km/h 74 % 0.0 mm
01:54 13.6 °C 9.0 °C 1033.1 hPa ENE 24.1 km/h 24.1 km/h 74 % 0.0 mm
01:59 13.6 °C 9.0 °C 1032.7 hPa NE 22.2 km/h 22.2 km/h 74 % 0.0 mm
02:04 13.6 °C 9.0 °C 1032.7 hPa ENE 24.1 km/h 24.1 km/h 74 % 0.0 mm
02:09 13.6 °C 9.0 °C 1032.7 hPa NE 25.9 km/h 25.9 km/h 74 % 0.0 mm
02:14 13.6 °C 8.8 °C 1032.7 hPa ENE 25.9 km/h 25.9 km/h 73 % 0.0 mm
02:19 13.6 °C 8.8 °C 1032.7 hPa NE 25.9 km/h 25.9 km/h 73 % 0.0 mm
02:24 13.5 °C 8.8 °C 1032.7 hPa ENE 24.1 km/h 24.1 km/h 73 % 0.0 mm
02:29 13.5 °C 8.9 °C 1032.7 hPa ENE 20.9 km/h 20.9 km/h 74 % 0.0 mm
02:34 13.5 °C 8.8 °C 1033.1 hPa ENE 20.9 km/h 20.9 km/h 73 % 0.0 mm
02:39 13.5 °C 8.8 °C 1032.7 hPa NE 20.4 km/h 20.4 km/h 73 % 0.0 mm
02:44 13.5 °C 8.8 °C 1032.7 hPa ENE 19.3 km/h 19.3 km/h 73 % 0.0 mm
02:49 13.5 °C 8.8 °C 1033.1 hPa ENE 20.9 km/h 20.9 km/h 73 % 0.0 mm
02:54 13.5 °C 8.8 °C 1033.1 hPa ENE 20.9 km/h 20.9 km/h 73 % 0.0 mm
02:59 13.5 °C 8.8 °C 1033.1 hPa ENE 19.3 km/h 19.3 km/h 73 % 0.0 mm
03:04 13.5 °C 8.6 °C 1033.1 hPa NE 20.4 km/h 20.4 km/h 72 % 0.0 mm
03:09 13.4 °C 8.2 °C 1033.1 hPa ENE 24.1 km/h 24.1 km/h 71 % 0.0 mm
03:14 13.4 °C 8.2 °C 1033.1 hPa NE 20.4 km/h 20.4 km/h 71 % 0.0 mm
03:19 13.3 °C 8.2 °C 1032.7 hPa NE 24.1 km/h 24.1 km/h 71 % 0.0 mm
03:24 13.4 °C 8.2 °C 1032.7 hPa NE 18.5 km/h 18.5 km/h 71 % 0.0 mm
03:29 13.3 °C 8.2 °C 1032.7 hPa NE 24.1 km/h 24.1 km/h 71 % 0.0 mm
03:34 13.3 °C 7.9 °C 1032.7 hPa NE 20.4 km/h 20.4 km/h 70 % 0.0 mm
03:39 13.4 °C 8.2 °C 1032.7 hPa ENE 18.5 km/h 18.5 km/h 71 % 0.0 mm
03:44 13.4 °C 8.2 °C 1032.7 hPa NE 22.2 km/h 22.2 km/h 71 % 0.0 mm
03:49 13.4 °C 8.5 °C 1033.1 hPa NE 22.2 km/h 22.2 km/h 72 % 0.0 mm
03:54 13.3 °C 8.2 °C 1032.7 hPa ENE 20.4 km/h 20.4 km/h 71 % 0.0 mm
03:59 13.3 °C 8.4 °C 1033.1 hPa NE 18.5 km/h 18.5 km/h 72 % 0.0 mm
04:04 13.3 °C 8.4 °C 1033.1 hPa NE 18.5 km/h 18.5 km/h 72 % 0.0 mm
04:09 13.4 °C 8.7 °C 1033.1 hPa NE 22.2 km/h 22.2 km/h 73 % 0.0 mm
04:14 13.4 °C 8.7 °C 1033.1 hPa NE 20.4 km/h 20.4 km/h 73 % 0.0 mm
04:19 13.4 °C 8.7 °C 1032.7 hPa NE 18.5 km/h 18.5 km/h 73 % 0.0 mm
04:20 13.3 °C 8.6 °C 1032.7 hPa ENE 25.9 km/h 25.9 km/h 73 % 0.0 mm
04:25 13.4 °C 8.7 °C 1032.7 hPa NE 20.4 km/h 20.4 km/h 73 % 0.0 mm
04:30 13.3 °C 8.6 °C 1032.7 hPa ENE 24.1 km/h 24.1 km/h 73 % 0.0 mm
04:31 13.3 °C 8.6 °C 1032.7 hPa ENE 24.1 km/h 24.1 km/h 73 % 0.0 mm
04:36 13.3 °C 8.6 °C 1032.7 hPa ENE 19.3 km/h 19.3 km/h 73 % 0.0 mm
04:41 13.3 °C 8.6 °C 1032.7 hPa ENE 24.1 km/h 24.1 km/h 73 % 0.0 mm
04:46 13.3 °C 8.6 °C 1032.7 hPa NE 25.9 km/h 25.9 km/h 73 % 0.0 mm
04:51 13.3 °C 8.6 °C 1032.7 hPa NE 24.1 km/h 24.1 km/h 73 % 0.0 mm
04:56 13.4 °C 8.7 °C 1032.7 hPa NE 29.6 km/h 29.6 km/h 73 % 0.0 mm
05:01 13.4 °C 8.7 °C 1032.7 hPa ENE 22.2 km/h 22.2 km/h 73 % 0.0 mm
05:06 13.3 °C 8.6 °C 1032.7 hPa ENE 22.5 km/h 22.5 km/h 73 % 0.0 mm
05:11 13.4 °C 8.7 °C 1032.7 hPa ENE 20.9 km/h 20.9 km/h 73 % 0.0 mm
05:16 13.4 °C 8.7 °C 1032.7 hPa NE 24.1 km/h 24.1 km/h 73 % 0.0 mm
05:21 13.4 °C 8.7 °C 1032.7 hPa ENE 25.9 km/h 25.9 km/h 73 % 0.0 mm
05:26 13.5 °C 8.6 °C 1032.7 hPa ENE 24.1 km/h 24.1 km/h 72 % 0.0 mm
05:31 13.4 °C 8.7 °C 1032.7 hPa ENE 24.1 km/h 24.1 km/h 73 % 0.0 mm
05:36 13.4 °C 8.7 °C 1032.7 hPa ENE 22.5 km/h 22.5 km/h 73 % 0.0 mm
05:41 13.4 °C 8.7 °C 1032.4 hPa ENE 25.7 km/h 25.7 km/h 73 % 0.0 mm
05:46 13.4 °C 8.7 °C 1032.4 hPa ENE 20.9 km/h 20.9 km/h 73 % 0.0 mm
05:51 13.3 °C 8.6 °C 1032.7 hPa ENE 20.9 km/h 20.9 km/h 73 % 0.0 mm
05:56 13.3 °C 8.6 °C 1032.7 hPa ENE 19.3 km/h 19.3 km/h 73 % 0.0 mm
06:01 13.3 °C 8.6 °C 1032.7 hPa ENE 20.9 km/h 20.9 km/h 73 % 0.0 mm
06:06 13.3 °C 8.6 °C 1032.7 hPa ENE 20.4 km/h 20.4 km/h 73 % 0.0 mm
06:11 13.3 °C 8.6 °C 1032.7 hPa NE 22.2 km/h 22.2 km/h 73 % 0.0 mm
06:16 13.3 °C 8.6 °C 1032.7 hPa ENE 25.9 km/h 25.9 km/h 73 % 0.0 mm
06:21 13.3 °C 8.6 °C 1032.7 hPa NE 24.1 km/h 24.1 km/h 73 % 0.0 mm
06:26 13.2 °C 8.5 °C 1032.7 hPa NE 20.4 km/h 20.4 km/h 73 % 0.0 mm
06:31 13.2 °C 8.5 °C 1032.7 hPa ENE 20.4 km/h 20.4 km/h 73 % 0.0 mm
06:36 13.2 °C 8.5 °C 1032.7 hPa NE 24.1 km/h 24.1 km/h 73 % 0.0 mm
06:41 13.3 °C 8.6 °C 1032.7 hPa ENE 20.4 km/h 20.4 km/h 73 % 0.0 mm
06:46 13.3 °C 8.3 °C 1032.7 hPa ENE 22.2 km/h 22.2 km/h 72 % 0.0 mm
06:51 13.3 °C 8.4 °C 1032.7 hPa ENE 22.2 km/h 22.2 km/h 72 % 0.0 mm
06:56 13.4 °C 8.4 °C 1032.7 hPa NE 22.2 km/h 22.2 km/h 72 % 0.0 mm
07:01 13.4 °C 8.4 °C 1033.1 hPa ENE 18.5 km/h 18.5 km/h 72 % 0.0 mm
07:06 13.3 °C 8.4 °C 1033.1 hPa NE 22.5 km/h 22.5 km/h 72 % 0.0 mm
07:11 13.3 °C 8.4 °C 1033.1 hPa NE 16.7 km/h 16.7 km/h 72 % 0.0 mm
07:16 13.3 °C 8.2 °C 1033.1 hPa ENE 18.5 km/h 18.5 km/h 71 % 0.0 mm
07:21 13.4 °C 8.2 °C 1033.1 hPa ENE 19.3 km/h 19.3 km/h 71 % 0.0 mm
07:26 13.5 °C 8.3 °C 1033.1 hPa ENE 24.1 km/h 24.1 km/h 71 % 0.0 mm
07:31 13.6 °C 8.2 °C 1033.1 hPa ENE 20.4 km/h 20.4 km/h 70 % 0.0 mm
07:36 13.6 °C 8.2 °C 1033.1 hPa ENE 25.9 km/h 25.9 km/h 70 % 0.0 mm
07:41 13.7 °C 8.3 °C 1033.1 hPa ENE 27.8 km/h 27.8 km/h 70 % 0.0 mm
07:46 13.7 °C 8.3 °C 1033.1 hPa NE 22.2 km/h 22.2 km/h 70 % 0.0 mm
07:51 13.6 °C 8.0 °C 1033.1 hPa ENE 24.1 km/h 24.1 km/h 69 % 0.0 mm
07:56 13.7 °C 8.1 °C 1033.1 hPa NE 20.4 km/h 20.4 km/h 69 % 0.0 mm
08:01 13.7 °C 8.5 °C 1033.1 hPa NE 22.2 km/h 22.2 km/h 71 % 0.0 mm
08:06 13.7 °C 8.5 °C 1033.4 hPa ENE 22.2 km/h 22.2 km/h 71 % 0.0 mm
08:11 13.7 °C 8.5 °C 1033.4 hPa ENE 24.1 km/h 24.1 km/h 71 % 0.0 mm
08:16 13.6 °C 8.4 °C 1033.4 hPa ENE 22.5 km/h 22.5 km/h 71 % 0.0 mm
08:21 13.6 °C 8.4 °C 1033.4 hPa ENE 20.4 km/h 20.4 km/h 71 % 0.0 mm
08:26 13.6 °C 8.4 °C 1033.4 hPa ENE 19.3 km/h 19.3 km/h 71 % 0.0 mm
08:31 13.7 °C 8.3 °C 1033.4 hPa East 18.5 km/h 18.5 km/h 70 % 0.0 mm
08:36 13.7 °C 8.5 °C 1033.4 hPa ENE 20.4 km/h 20.4 km/h 71 % 0.0 mm
08:41 13.7 °C 8.5 °C 1033.7 hPa ENE 22.5 km/h 22.5 km/h 71 % 0.0 mm
08:46 13.7 °C 8.6 °C 1033.7 hPa NE 22.5 km/h 22.5 km/h 71 % 0.0 mm
08:51 13.7 °C 8.3 °C 1033.7 hPa ENE 22.2 km/h 22.2 km/h 70 % 0.0 mm
08:56 13.7 °C 8.5 °C 1033.7 hPa ENE 20.4 km/h 20.4 km/h 71 % 0.0 mm
09:01 13.7 °C 8.5 °C 1033.7 hPa ENE 18.5 km/h 18.5 km/h 71 % 0.0 mm
09:07 13.7 °C 8.3 °C 1033.7 hPa ENE 18.5 km/h 18.5 km/h 70 % 0.0 mm
09:12 13.7 °C 8.6 °C 1033.7 hPa ENE 22.2 km/h 22.2 km/h 71 % 0.0 mm
09:17 13.7 °C 8.3 °C 1033.7 hPa East 27.8 km/h 27.8 km/h 70 % 0.0 mm
09:22 13.7 °C 8.3 °C 1033.7 hPa NE 25.9 km/h 25.9 km/h 70 % 0.0 mm
09:27 13.8 °C 8.4 °C 1033.7 hPa ENE 22.2 km/h 22.2 km/h 70 % 0.0 mm
09:32 13.8 °C 8.4 °C 1033.7 hPa ENE 24.1 km/h 24.1 km/h 70 % 0.0 mm
09:37 13.8 °C 8.2 °C 1033.7 hPa ENE 22.2 km/h 22.2 km/h 69 % 0.0 mm
09:42 13.8 °C 8.2 °C 1033.7 hPa ENE 29.6 km/h 29.6 km/h 69 % 0.0 mm
09:47 13.8 °C 8.2 °C 1033.7 hPa ENE 25.9 km/h 25.9 km/h 69 % 0.0 mm
09:52 13.8 °C 8.2 °C 1034.1 hPa East 25.9 km/h 25.9 km/h 69 % 0.0 mm
09:57 13.8 °C 8.2 °C 1034.1 hPa ENE 25.9 km/h 25.9 km/h 69 % 0.0 mm
10:02 13.9 °C 8.5 °C 1034.1 hPa ENE 22.2 km/h 22.2 km/h 70 % 0.0 mm
10:07 13.9 °C 8.3 °C 1034.1 hPa ENE 25.9 km/h 25.9 km/h 69 % 0.0 mm
10:12 14.0 °C 8.8 °C 1034.1 hPa ENE 25.9 km/h 25.9 km/h 71 % 0.0 mm
10:17 14.0 °C 8.6 °C 1034.1 hPa ENE 24.1 km/h 24.1 km/h 70 % 0.0 mm
10:22 14.0 °C 8.8 °C 1034.1 hPa East 25.9 km/h 25.9 km/h 71 % 0.0 mm
10:27 14.1 °C 8.7 °C 1034.4 hPa ENE 27.8 km/h 27.8 km/h 70 % 0.0 mm
10:32 14.1 °C 8.7 °C 1034.4 hPa East 25.9 km/h 25.9 km/h 70 % 0.0 mm
10:37 14.0 °C 8.4 °C 1034.4 hPa ENE 29.6 km/h 29.6 km/h 69 % 0.0 mm
10:42 14.1 °C 8.9 °C 1034.4 hPa ENE 24.1 km/h 24.1 km/h 71 % 0.0 mm
10:47 14.0 °C 8.4 °C 1034.4 hPa ENE 22.2 km/h 22.2 km/h 69 % 0.0 mm
10:52 14.1 °C 8.7 °C 1034.8 hPa ENE 22.2 km/h 22.2 km/h 70 % 0.0 mm
10:57 14.1 °C 9.1 °C 1034.8 hPa East 27.8 km/h 27.8 km/h 72 % 0.0 mm
11:02 14.1 °C 8.9 °C 1034.8 hPa ENE 25.7 km/h 25.7 km/h 71 % 0.0 mm
11:07 14.1 °C 8.7 °C 1034.8 hPa East 25.9 km/h 25.9 km/h 70 % 0.0 mm
11:12 14.1 °C 8.9 °C 1034.8 hPa ENE 20.4 km/h 20.4 km/h 71 % 0.0 mm
11:17 14.2 °C 9.2 °C 1034.8 hPa East 24.1 km/h 24.1 km/h 72 % 0.0 mm
11:22 14.2 °C 9.0 °C 1034.8 hPa ENE 22.2 km/h 22.2 km/h 71 % 0.0 mm
11:27 14.1 °C 8.7 °C 1034.8 hPa East 27.8 km/h 27.8 km/h 70 % 0.0 mm
11:28 14.2 °C 8.8 °C 1034.4 hPa East 27.8 km/h 27.8 km/h 70 % 0.0 mm
11:33 14.2 °C 9.0 °C 1034.4 hPa East 25.9 km/h 25.9 km/h 71 % 0.0 mm
11:38 14.2 °C 9.0 °C 1034.4 hPa East 22.2 km/h 22.2 km/h 71 % 0.0 mm
11:43 14.2 °C 8.8 °C 1034.4 hPa East 27.8 km/h 27.8 km/h 70 % 0.0 mm
11:48 14.2 °C 9.1 °C 1034.4 hPa ENE 22.2 km/h 22.2 km/h 71 % 0.0 mm
11:53 14.2 °C 8.6 °C 1034.4 hPa East 31.5 km/h 31.5 km/h 69 % 0.0 mm
11:58 14.2 °C 8.6 °C 1034.4 hPa ENE 20.9 km/h 22.2 km/h 69 % 0.0 mm
12:03 14.2 °C 8.8 °C 1034.4 hPa East 24.1 km/h 24.1 km/h 70 % 0.0 mm
12:08 14.3 °C 8.9 °C 1034.4 hPa ENE 20.4 km/h 20.4 km/h 70 % 0.0 mm
12:13 14.3 °C 8.7 °C 1034.4 hPa East 30.6 km/h 30.6 km/h 69 % 0.0 mm
12:18 14.3 °C 8.9 °C 1034.4 hPa East 27.8 km/h 27.8 km/h 70 % 0.0 mm
12:23 14.4 °C 9.2 °C 1034.4 hPa East 24.1 km/h 24.1 km/h 71 % 0.0 mm
12:28 14.4 °C 9.0 °C 1034.1 hPa East 24.1 km/h 24.1 km/h 70 % 0.0 mm
12:33 14.4 °C 9.0 °C 1034.1 hPa East 20.4 km/h 20.4 km/h 70 % 0.0 mm
12:38 14.4 °C 9.1 °C 1034.1 hPa East 22.5 km/h 22.5 km/h 70 % 0.0 mm
12:43 14.5 °C 9.1 °C 1034.1 hPa East 27.8 km/h 27.8 km/h 70 % 0.0 mm
12:53 14.6 °C 9.0 °C 1033.7 hPa East 27.8 km/h 27.8 km/h 69 % 0.0 mm
12:58 14.4 °C 8.4 °C 1033.7 hPa East 25.9 km/h 25.9 km/h 67 % 0.0 mm
13:03 14.4 °C 8.6 °C 1033.7 hPa East 25.9 km/h 25.9 km/h 68 % 0.0 mm
13:08 14.4 °C 8.8 °C 1033.7 hPa ESE 25.9 km/h 25.9 km/h 69 % 0.0 mm
13:13 14.5 °C 8.9 °C 1033.7 hPa East 29.6 km/h 29.6 km/h 69 % 0.0 mm
13:18 14.5 °C 8.9 °C 1033.7 hPa ESE 25.9 km/h 25.9 km/h 69 % 0.0 mm
13:23 14.6 °C 9.2 °C 1033.4 hPa ESE 22.5 km/h 22.5 km/h 70 % 0.0 mm
13:28 14.6 °C 9.2 °C 1033.4 hPa ESE 22.5 km/h 22.5 km/h 70 % 0.0 mm
13:33 14.6 °C 8.9 °C 1033.4 hPa ESE 24.1 km/h 24.1 km/h 69 % 0.0 mm
13:38 14.6 °C 9.2 °C 1033.4 hPa ESE 25.9 km/h 25.9 km/h 70 % 0.0 mm
13:43 14.7 °C 9.4 °C 1033.4 hPa East 24.1 km/h 24.1 km/h 71 % 0.0 mm
13:48 14.7 °C 9.4 °C 1033.4 hPa ESE 24.1 km/h 24.1 km/h 71 % 0.0 mm
13:53 14.6 °C 9.4 °C 1033.4 hPa ESE 27.8 km/h 27.8 km/h 71 % 0.0 mm
13:58 14.5 °C 9.1 °C 1033.4 hPa ESE 25.9 km/h 25.9 km/h 70 % 0.0 mm
14:03 14.5 °C 9.3 °C 1033.1 hPa ESE 27.8 km/h 27.8 km/h 71 % 0.0 mm
14:08 14.5 °C 9.1 °C 1033.1 hPa ESE 27.8 km/h 27.8 km/h 70 % 0.0 mm
14:13 14.6 °C 9.6 °C 1033.1 hPa ESE 27.8 km/h 27.8 km/h 72 % 0.0 mm
14:18 14.5 °C 9.3 °C 1033.1 hPa ESE 27.8 km/h 27.8 km/h 71 % 0.0 mm
14:23 14.5 °C 9.1 °C 1033.1 hPa ESE 31.5 km/h 31.5 km/h 70 % 0.0 mm
14:28 14.6 °C 9.3 °C 1033.1 hPa ESE 27.8 km/h 27.8 km/h 71 % 0.0 mm
14:33 14.6 °C 9.3 °C 1033.1 hPa ESE 27.8 km/h 27.8 km/h 71 % 0.0 mm
14:38 14.7 °C 9.7 °C 1033.1 hPa ESE 24.1 km/h 24.1 km/h 72 % 0.0 mm
14:40 14.6 °C 9.2 °C 1032.7 hPa East 25.9 km/h 25.9 km/h 70 % 0.0 mm
14:45 14.6 °C 8.6 °C 1032.7 hPa ESE 27.8 km/h 27.8 km/h 67 % 0.0 mm
14:50 14.6 °C 8.8 °C 1032.7 hPa ESE 22.2 km/h 22.2 km/h 68 % 0.0 mm
14:55 14.7 °C 9.1 °C 1032.7 hPa East 27.8 km/h 27.8 km/h 69 % 0.0 mm
15:00 14.7 °C 9.3 °C 1032.7 hPa ESE 25.7 km/h 25.7 km/h 70 % 0.0 mm
15:05 14.6 °C 9.0 °C 1032.7 hPa ESE 27.8 km/h 27.8 km/h 69 % 0.0 mm
15:10 14.7 °C 9.1 °C 1032.7 hPa ESE 22.5 km/h 22.5 km/h 69 % 0.0 mm
15:15 14.7 °C 9.3 °C 1032.7 hPa East 27.4 km/h 27.4 km/h 70 % 0.0 mm
15:20 14.7 °C 9.3 °C 1032.7 hPa East 27.8 km/h 27.8 km/h 70 % 0.0 mm
15:25 14.8 °C 9.6 °C 1032.4 hPa East 27.8 km/h 27.8 km/h 71 % 0.0 mm
15:30 14.8 °C 9.3 °C 1032.4 hPa East 25.9 km/h 25.9 km/h 70 % 0.0 mm
15:35 14.8 °C 9.6 °C 1032.4 hPa East 25.9 km/h 25.9 km/h 71 % 0.0 mm
15:40 14.8 °C 9.3 °C 1032.4 hPa East 24.1 km/h 24.1 km/h 70 % 0.0 mm
15:50 14.8 °C 9.6 °C 1032.4 hPa East 25.9 km/h 25.9 km/h 71 % 0.0 mm
15:51 14.8 °C 9.6 °C 1032.4 hPa East 27.4 km/h 27.4 km/h 71 % 0.0 mm
15:56 14.8 °C 9.4 °C 1032.4 hPa East 27.8 km/h 27.8 km/h 70 % 0.0 mm
16:01 14.8 °C 9.2 °C 1032.4 hPa East 27.8 km/h 27.8 km/h 69 % 0.0 mm
16:06 14.8 °C 9.3 °C 1032.4 hPa East 24.1 km/h 24.1 km/h 70 % 0.0 mm
16:11 14.9 °C 9.4 °C 1032.4 hPa East 22.2 km/h 22.2 km/h 70 % 0.0 mm
16:16 14.8 °C 9.2 °C 1032.4 hPa East 27.8 km/h 27.8 km/h 69 % 0.0 mm
16:21 14.8 °C 9.4 °C 1032.4 hPa East 25.9 km/h 25.9 km/h 70 % 0.0 mm
16:26 14.8 °C 9.4 °C 1032.4 hPa East 22.5 km/h 22.5 km/h 70 % 0.0 mm
16:31 14.9 °C 9.9 °C 1032.4 hPa ESE 24.1 km/h 24.1 km/h 72 % 0.0 mm
16:36 14.9 °C 9.9 °C 1032.7 hPa ESE 25.9 km/h 25.9 km/h 72 % 0.0 mm
16:41 14.8 °C 9.6 °C 1032.4 hPa East 27.8 km/h 27.8 km/h 71 % 0.0 mm
16:46 14.8 °C 9.6 °C 1032.4 hPa East 27.8 km/h 27.8 km/h 71 % 0.0 mm
16:51 14.8 °C 9.6 °C 1032.4 hPa East 24.1 km/h 24.1 km/h 71 % 0.0 mm
16:56 14.9 °C 9.9 °C 1032.4 hPa East 24.1 km/h 24.1 km/h 72 % 0.0 mm
17:01 14.8 °C 9.6 °C 1032.4 hPa East 22.2 km/h 22.2 km/h 71 % 0.0 mm
17:06 14.9 °C 9.7 °C 1032.4 hPa ESE 25.9 km/h 25.9 km/h 71 % 0.0 mm
17:11 14.9 °C 9.9 °C 1032.4 hPa East 24.1 km/h 24.1 km/h 72 % 0.0 mm
17:16 14.8 °C 9.3 °C 1032.4 hPa East 25.9 km/h 25.9 km/h 70 % 0.0 mm
17:21 14.8 °C 9.4 °C 1032.4 hPa East 24.1 km/h 24.1 km/h 70 % 0.0 mm
17:26 14.9 °C 9.7 °C 1032.7 hPa East 25.9 km/h 25.9 km/h 71 % 0.0 mm
17:31 14.8 °C 9.2 °C 1032.7 hPa East 25.9 km/h 25.9 km/h 69 % 0.0 mm
17:36 14.8 °C 9.2 °C 1032.7 hPa East 22.5 km/h 22.5 km/h 69 % 0.0 mm
17:41 14.8 °C 9.3 °C 1032.7 hPa East 22.2 km/h 22.2 km/h 70 % 0.0 mm
17:46 14.7 °C 9.3 °C 1032.7 hPa ENE 22.2 km/h 22.2 km/h 70 % 0.0 mm
17:51 14.7 °C 9.5 °C 1032.4 hPa ENE 24.1 km/h 24.1 km/h 71 % 0.0 mm
17:56 14.7 °C 9.3 °C 1032.4 hPa ENE 25.9 km/h 25.9 km/h 70 % 0.0 mm
18:01 14.7 °C 9.5 °C 1032.4 hPa East 24.1 km/h 24.1 km/h 71 % 0.0 mm
18:06 14.7 °C 9.4 °C 1032.7 hPa ENE 24.1 km/h 24.1 km/h 71 % 0.0 mm
18:11 14.7 °C 9.9 °C 1032.7 hPa East 22.5 km/h 22.5 km/h 73 % 0.0 mm
18:16 14.6 °C 9.6 °C 1032.7 hPa East 20.4 km/h 20.4 km/h 72 % 0.0 mm
18:21 14.5 °C 9.5 °C 1032.7 hPa ENE 20.9 km/h 20.9 km/h 72 % 0.0 mm
18:23 14.5 °C 9.5 °C 1032.7 hPa East 20.4 km/h 20.4 km/h 72 % 0.0 mm
18:28 14.5 °C 9.5 °C 1032.7 hPa East 22.2 km/h 22.2 km/h 72 % 0.0 mm
18:33 14.5 °C 9.5 °C 1032.7 hPa ENE 20.9 km/h 20.9 km/h 72 % 0.0 mm
18:38 14.5 °C 9.7 °C 1032.7 hPa ENE 18.5 km/h 18.5 km/h 73 % 0.0 mm
18:43 14.3 °C 9.3 °C 1032.7 hPa NE 14.8 km/h 14.8 km/h 72 % 0.0 mm
18:48 14.2 °C 9.2 °C 1032.7 hPa NE 13.0 km/h 13.0 km/h 72 % 0.0 mm
18:53 14.1 °C 9.1 °C 1033.1 hPa NE 11.1 km/h 11.1 km/h 72 % 0.0 mm
18:58 13.9 °C 9.0 °C 1033.1 hPa NE 11.1 km/h 11.1 km/h 72 % 0.0 mm
19:03 13.8 °C 8.9 °C 1033.1 hPa NE 8.0 km/h 8.0 km/h 72 % 0.0 mm
19:08 13.7 °C 8.8 °C 1033.1 hPa NE 11.3 km/h 11.3 km/h 72 % 0.0 mm
19:13 13.8 °C 8.8 °C 1033.1 hPa NE 9.3 km/h 9.3 km/h 72 % 0.0 mm
19:18 13.7 °C 8.8 °C 1033.1 hPa NE 12.9 km/h 12.9 km/h 72 % 0.0 mm
19:23 13.7 °C 8.6 °C 1033.1 hPa NE 9.7 km/h 9.7 km/h 71 % 0.0 mm
19:28 13.6 °C 8.4 °C 1033.1 hPa NE 11.1 km/h 11.1 km/h 71 % 0.0 mm
19:33 13.6 °C 8.4 °C 1033.1 hPa NNE 9.3 km/h 9.3 km/h 71 % 0.0 mm
19:38 13.4 °C 8.1 °C 1033.1 hPa NNE 7.4 km/h 7.4 km/h 70 % 0.0 mm
19:43 13.2 °C 7.9 °C 1033.1 hPa NNE 5.6 km/h 5.6 km/h 70 % 0.0 mm
19:48 13.1 °C 7.9 °C 1033.1 hPa NE 9.7 km/h 9.7 km/h 71 % 0.0 mm
19:53 13.0 °C 7.9 °C 1033.4 hPa NNE 8.0 km/h 8.0 km/h 71 % 0.0 mm
19:58 12.7 °C 7.6 °C 1033.4 hPa North 8.0 km/h 8.0 km/h 71 % 0.0 mm
20:03 12.4 °C 7.3 °C 1033.4 hPa NNE 8.0 km/h 8.0 km/h 71 % 0.0 mm
20:08 12.3 °C 7.4 °C 1033.4 hPa North 11.1 km/h 11.1 km/h 72 % 0.0 mm
20:13 12.3 °C 7.4 °C 1033.4 hPa North 9.3 km/h 9.3 km/h 72 % 0.0 mm
20:18 12.2 °C 7.3 °C 1033.4 hPa North 8.0 km/h 8.0 km/h 72 % 0.0 mm
20:23 12.2 °C 7.3 °C 1033.4 hPa North 12.9 km/h 12.9 km/h 72 % 0.0 mm
20:28 12.1 °C 7.2 °C 1033.4 hPa North 11.3 km/h 11.3 km/h 72 % 0.0 mm
20:38 11.9 °C 7.3 °C 1033.4 hPa North 11.3 km/h 11.3 km/h 73 % 0.0 mm
20:43 11.8 °C 7.2 °C 1033.4 hPa North 13.0 km/h 13.0 km/h 73 % 0.0 mm
20:48 11.8 °C 7.1 °C 1033.4 hPa North 11.3 km/h 11.3 km/h 73 % 0.0 mm
20:53 11.7 °C 7.1 °C 1033.4 hPa North 13.0 km/h 13.0 km/h 73 % 0.0 mm
20:58 11.7 °C 7.2 °C 1033.4 hPa NNE 9.7 km/h 9.7 km/h 74 % 0.0 mm
21:03 11.7 °C 7.2 °C 1033.4 hPa NNE 13.0 km/h 13.0 km/h 74 % 0.0 mm
21:08 11.6 °C 7.1 °C 1033.4 hPa North 11.3 km/h 11.3 km/h 74 % 0.0 mm
21:13 11.6 °C 7.1 °C 1033.4 hPa North 14.8 km/h 14.8 km/h 74 % 0.0 mm
21:18 11.6 °C 7.1 °C 1033.7 hPa North 13.0 km/h 13.0 km/h 74 % 0.0 mm
21:21 11.5 °C 7.0 °C 1033.7 hPa North 11.3 km/h 11.3 km/h 74 % 0.0 mm
21:26 11.5 °C 7.0 °C 1033.7 hPa North 14.8 km/h 14.8 km/h 74 % 0.0 mm
21:31 11.4 °C 7.2 °C 1033.7 hPa North 14.8 km/h 14.8 km/h 75 % 0.0 mm
21:36 11.4 °C 7.2 °C 1033.7 hPa North 16.7 km/h 16.7 km/h 75 % 0.0 mm
21:41 11.4 °C 7.2 °C 1033.7 hPa North 14.8 km/h 14.8 km/h 75 % 0.0 mm
21:46 11.4 °C 7.2 °C 1033.7 hPa NNE 18.5 km/h 18.5 km/h 75 % 0.0 mm
21:51 11.4 °C 7.2 °C 1033.7 hPa NNE 14.8 km/h 14.8 km/h 75 % 0.0 mm
21:56 11.4 °C 6.9 °C 1033.4 hPa North 16.7 km/h 16.7 km/h 74 % 0.0 mm
22:01 11.4 °C 6.9 °C 1033.7 hPa North 18.5 km/h 18.5 km/h 74 % 0.0 mm
22:06 11.4 °C 7.1 °C 1033.4 hPa North 14.8 km/h 14.8 km/h 75 % 0.0 mm
22:11 11.3 °C 7.1 °C 1033.7 hPa North 16.7 km/h 16.7 km/h 75 % 0.0 mm
22:16 11.3 °C 7.1 °C 1033.4 hPa North 18.5 km/h 18.5 km/h 75 % 0.0 mm
22:21 11.3 °C 7.1 °C 1033.7 hPa North 16.7 km/h 16.7 km/h 75 % 0.0 mm
22:26 11.3 °C 6.9 °C 1033.7 hPa NNE 18.5 km/h 18.5 km/h 74 % 0.0 mm
22:31 11.3 °C 6.9 °C 1033.7 hPa North 18.5 km/h 18.5 km/h 74 % 0.0 mm
22:36 11.3 °C 6.8 °C 1033.7 hPa North 16.7 km/h 16.7 km/h 74 % 0.0 mm
22:41 11.2 °C 6.8 °C 1033.7 hPa North 14.8 km/h 14.8 km/h 74 % 0.0 mm
22:46 11.2 °C 6.7 °C 1033.7 hPa North 18.5 km/h 18.5 km/h 74 % 0.0 mm
22:51 11.2 °C 6.8 °C 1033.7 hPa North 16.7 km/h 16.7 km/h 74 % 0.0 mm
22:56 11.2 °C 6.8 °C 1033.7 hPa North 18.5 km/h 18.5 km/h 74 % 0.0 mm
23:01 11.2 °C 6.8 °C 1033.7 hPa North 18.5 km/h 18.5 km/h 74 % 0.0 mm
23:06 11.2 °C 6.8 °C 1033.7 hPa NNE 16.7 km/h 16.7 km/h 74 % 0.0 mm
23:11 11.3 °C 6.8 °C 1033.7 hPa North 16.7 km/h 16.7 km/h 74 % 0.0 mm
23:16 11.3 °C 6.9 °C 1033.7 hPa North 14.8 km/h 14.8 km/h 74 % 0.0 mm
23:21 11.4 °C 6.7 °C 1033.7 hPa North 16.7 km/h 16.7 km/h 73 % 0.0 mm
23:26 11.4 °C 6.7 °C 1033.7 hPa NNW 14.8 km/h 14.8 km/h 73 % 0.0 mm
23:31 11.4 °C 6.9 °C 1033.7 hPa North 13.0 km/h 13.0 km/h 74 % 0.0 mm
23:36 11.4 °C 6.9 °C 1033.7 hPa North 13.0 km/h 13.0 km/h 74 % 0.0 mm
23:41 11.4 °C 6.9 °C 1033.7 hPa North 13.0 km/h 13.0 km/h 74 % 0.0 mm
23:46 11.4 °C 6.9 °C 1033.7 hPa North 14.8 km/h 14.8 km/h 74 % 0.0 mm
23:51 11.4 °C 6.9 °C 1033.7 hPa North 13.0 km/h 13.0 km/h 74 % 0.0 mm
23:56 11.3 °C 6.9 °C 1033.7 hPa North 11.1 km/h 11.1 km/h 74 % 0.0 mm
Puerto Banus, Marbella
Elogios de Weather Underground - 1.75 mb

Guión original por  Jim McMurry - jmcmurry@mwt.net Adaptado para la plantilla por  Wim van der Kuil - Leuven-Template.eu

Usted encontrará nuestra información del tiempo también en:

Weather Underground

Iberian Peninsula Weather Network